Gunnison, CO

7:45 PM MDT on April 28, 2017 (GMT -0600)
West Ruby Ave Weather | | Change Station

Elev 7713 ft 38.55 °N, 106.93 °W | Updated 1 second ago

Clear
Clear
37.7 °F
Feels Like 38 °F
N
0.0
Wind Variable Wind from SSW
Gusts 0.0 mph

Today
High -- | Low -- °F
--% Chance of Precip.
Yesterday
High -- | Low -- °F
Precip. -- in
Pressure 29.78 in
Visibility 10.0 miles
Clouds Clear
Windchill 38 °F
Dew Point 8 °F
Humidity 29%
Rainfall in
Snow Depth Not available.
6:13 AM 7:57 PM
Waxing Crescent, 10% visible
METAR KGUC 290056Z AUTO 21005KT 10SM CLR 03/M12 A2975 RMK AO2 SLP084 T00331117
Pressure 29.78 in
Visibility 10.0 miles
Clouds Clear
Windchill 38 °F
Dew Point 8 °F
Humidity 29%
Rainfall in
Snow Depth Not available.
6:13 AM 7:57 PM
Waxing Crescent, 10% visible
METAR KGUC 290056Z AUTO 21005KT 10SM CLR 03/M12 A2975 RMK AO2 SLP084 T00331117

Get Severe Weather Alerts

Thanks for signing up!

Be on the lookout for a verification email in your inbox.

You'll start receiving the daily forecast at 8 AM.

×

10-Day Weather Forecast

Almanac

Astronomy

Apr. 28, 2017 Rise Set
Actual Time
Civil Twilight
Nautical Twilight
Astronomical Twilight
Moon
Length of Visible Light
Length of Day
Tomorrow will be .
, % of the Moon is Illuminated

Today's Extremes

State Highs State Lows

Community

WunderPhotos

WunderBlog® & News

Nearby

Air Quality

  Air Quality AQ Index Pollutant
Not available.

Snow Depth

Station Depth Elevation

Earthquake Activity

City Distance Mag. Time & Date
Minimum magnitude displayed is 2.5.

Coastal Water Temperatures

Place Temperature

Stations

Nearby Weather Stations

Station Location Temp. Windchill Dew Point Humidity Wind Precip. Elev Updated Type
                   

Watches & Warnings

There are currently no watches in effect.